Time;durP1;ratioP1;P1;durP2;ratioP2;P2;SDS_P1;SDS_P2;PMS_P1;PMS_P2;Temp;Humidity;BMP_temperature;BMP_pressure;BME280_temperature;BME280_humidity;BME280_pressure;Samples;Min_cycle;Max_cycle;Signal;HPM_P1;HPM_P2
2022/12/08 00:01:09;;;;;;;25.13;14.75;;;;;;;;;;4983478;28;20160;-66
2022/12/08 00:03:35;;;;;;;24.60;14.45;;;;;;;;;;4984020;28;20097;-66
2022/12/08 00:11:30;;;;;;;27.23;13.52;;;;;;;;;;4983211;28;20097;-66
2022/12/08 00:13:55;;;;;;;19.20;11.40;;;;;;;;;;4983253;28;20054;-66
2022/12/08 00:16:21;;;;;;;18.95;11.73;;;;;;;;;;4981561;28;20089;-66
2022/12/08 00:18:46;;;;;;;22.10;11.88;;;;;;;;;;4983790;28;20053;-66
2022/12/08 00:21:11;;;;;;;21.65;11.40;;;;;;;;;;4982818;28;20042;-66
2022/12/08 00:23:37;;;;;;;19.88;11.57;;;;;;;;;;4982488;28;20141;-66
2022/12/08 00:26:03;;;;;;;27.25;11.98;;;;;;;;;;4982996;28;20186;-66
2022/12/08 00:28:30;;;;;;;19.00;11.50;;;;;;;;;;4982840;28;20065;-66
2022/12/08 00:30:56;;;;;;;20.13;11.30;;;;;;;;;;4982687;28;20043;-66
2022/12/08 00:33:21;;;;;;;22.98;11.77;;;;;;;;;;4983564;28;20108;-66
2022/12/08 00:35:47;;;;;;;22.58;10.65;;;;;;;;;;4983181;28;20034;-66
2022/12/08 00:38:12;;;;;;;22.90;12.05;;;;;;;;;;4982823;28;20113;-66
2022/12/08 00:40:43;;;;;;;25.13;10.70;;;;;;;;;;4982348;28;20095;-66
2022/12/08 00:43:08;;;;;;;22.23;11.32;;;;;;;;;;4983579;28;20546;-66
2022/12/08 00:45:34;;;;;;;19.35;11.32;;;;;;;;;;4983657;28;20043;-66
2022/12/08 00:48:00;;;;;;;23.02;10.75;;;;;;;;;;4983014;28;20041;-66
2022/12/08 00:50:25;;;;;;;24.23;11.82;;;;;;;;;;4981368;28;20085;-66
2022/12/08 00:52:50;;;;;;;21.50;10.35;;;;;;;;;;4983426;28;20038;-66
2022/12/08 00:55:16;;;;;;;22.63;11.40;;;;;;;;;;4983087;28;20050;-66
2022/12/08 00:57:41;;;;;;;30.98;13.45;;;;;;;;;;4982903;28;20050;-66
2022/12/08 01:00:07;;;;;;;44.63;18.23;;;;;;;;;;4981636;28;20105;-66
2022/12/08 01:02:33;;;;;;;31.88;14.02;;;;;;;;;;4982873;28;20046;-66
2022/12/08 01:04:58;;;;;;;29.40;13.65;;;;;;;;;;4980978;28;20046;-66
2022/12/08 01:07:25;;;;;;;32.15;13.93;;;;;;;;;;4980548;28;20202;-66
2022/12/08 01:09:51;;;;;;;21.33;12.38;;;;;;;;;;4980013;28;20042;-66
2022/12/08 01:12:17;;;;;;;24.38;13.15;;;;;;;;;;4980249;28;20198;-66
2022/12/08 01:14:42;;;;;;;27.80;13.80;;;;;;;;;;4981058;28;20531;-66
2022/12/08 01:17:08;;;;;;;22.27;12.32;;;;;;;;;;4982774;28;20047;-64
2022/12/08 01:19:33;;;;;;;26.40;13.32;;;;;;;;;;4982745;28;20054;-66
2022/12/08 01:21:58;;;;;;;21.55;11.77;;;;;;;;;;4981809;28;20057;-63
2022/12/08 01:24:24;;;;;;;19.05;10.82;;;;;;;;;;4982824;28;20065;-64
2022/12/08 01:26:50;;;;;;;18.13;10.80;;;;;;;;;;4996930;28;20057;-64
2022/12/08 01:29:16;;;;;;;23.30;12.52;;;;;;;;;;4982633;28;20408;-66
2022/12/08 01:31:42;;;;;;;21.85;11.35;;;;;;;;;;4979554;28;20051;-65
2022/12/08 01:34:09;;;;;;;22.17;10.93;;;;;;;;;;4982231;28;20129;-66
2022/12/08 01:36:37;;;;;;;25.63;12.07;;;;;;;;;;4981821;28;20053;-65
2022/12/08 01:39:05;;;;;;;16.90;10.00;;;;;;;;;;4997425;28;20469;-66
2022/12/08 01:41:33;;;;;;;21.65;11.23;;;;;;;;;;4981385;28;20104;-64
2022/12/08 01:43:58;;;;;;;18.83;10.48;;;;;;;;;;4981823;28;20130;-65
2022/12/08 01:46:24;;;;;;;26.77;10.25;;;;;;;;;;4982289;28;20046;-65
2022/12/08 01:49:13;;;;;;;24.02;10.98;;;;;;;;;;4981540;28;20049;-64
2022/12/08 01:52:01;;;;;;;21.65;11.13;;;;;;;;;;4980692;28;20069;-68
2022/12/08 01:54:32;;;;;;;16.27;9.90;;;;;;;;;;4982212;28;20078;-65
2022/12/08 01:57:04;;;;;;;17.45;10.18;;;;;;;;;;4982353;28;20053;-65
2022/12/08 01:59:33;;;;;;;17.02;10.70;;;;;;;;;;4979949;28;20070;-66
2022/12/08 02:01:58;;;;;;;22.52;10.65;;;;;;;;;;4980560;28;20054;-65
2022/12/08 02:04:24;;;;;;;19.83;11.52;;;;;;;;;;4980623;28;20050;-66
2022/12/08 02:06:51;;;;;;;20.27;10.55;;;;;;;;;;4981973;28;20049;-63
2022/12/08 02:09:18;;;;;;;17.52;10.98;;;;;;;;;;4995986;28;20046;-66
2022/12/08 02:11:43;;;;;;;18.85;10.25;;;;;;;;;;4980150;28;20035;-64
2022/12/08 02:14:11;;;;;;;22.45;11.05;;;;;;;;;;4980591;28;20384;-64
2022/12/08 02:17:04;;;;;;;18.15;10.82;;;;;;;;;;4981846;28;20137;-65
2022/12/08 02:19:59;;;;;;;17.35;10.35;;;;;;;;;;4981379;28;20066;-64
2022/12/08 02:22:53;;;;;;;22.05;10.07;;;;;;;;;;4978233;28;20519;-64
2022/12/08 02:25:18;;;;;;;19.08;11.05;;;;;;;;;;4980422;28;20042;-64
2022/12/08 02:27:57;;;;;;;18.77;10.30;;;;;;;;;;4979763;28;20057;-66
2022/12/08 02:31:04;;;;;;;17.92;10.95;;;;;;;;;;4980867;28;20046;-66
2022/12/08 02:33:57;;;;;;;20.67;11.18;;;;;;;;;;4974944;28;20085;-64
2022/12/08 02:36:38;;;;;;;21.45;11.82;;;;;;;;;;4980478;28;20081;-65
2022/12/08 02:39:24;;;;;;;19.15;10.80;;;;;;;;;;4981371;28;20072;-65
2022/12/08 02:41:58;;;;;;;22.38;11.52;;;;;;;;;;4979952;28;20707;-66
2022/12/08 02:44:31;;;;;;;22.83;11.68;;;;;;;;;;4979130;28;20089;-66
2022/12/08 02:47:02;;;;;;;18.35;10.27;;;;;;;;;;4981045;28;20189;-65
2022/12/08 02:49:32;;;;;;;19.90;12.05;;;;;;;;;;4981554;28;20054;-64
2022/12/08 02:52:13;;;;;;;17.85;10.70;;;;;;;;;;4979980;28;20054;-65
2022/12/08 02:54:42;;;;;;;19.42;10.43;;;;;;;;;;4980516;28;21056;-63
2022/12/08 02:57:32;;;;;;;19.60;12.30;;;;;;;;;;4981373;28;20054;-67
2022/12/08 03:00:09;;;;;;;22.83;13.18;;;;;;;;;;4980283;28;20101;-66
2022/12/08 03:02:49;;;;;;;21.25;12.00;;;;;;;;;;4980778;28;20089;-65
2022/12/08 03:05:46;;;;;;;24.73;12.80;;;;;;;;;;4980498;28;20054;-67
2022/12/08 03:08:47;;;;;;;18.92;10.90;;;;;;;;;;4978440;28;20157;-67
2022/12/08 03:11:19;;;;;;;17.30;11.68;;;;;;;;;;4980008;28;20521;-67
2022/12/08 03:13:53;;;;;;;21.63;11.77;;;;;;;;;;4980204;28;20047;-66
2022/12/08 03:16:23;;;;;;;20.02;11.20;;;;;;;;;;4980063;28;20053;-66
2022/12/08 03:18:55;;;;;;;20.83;11.65;;;;;;;;;;4979887;28;20104;-66
2022/12/08 03:21:21;;;;;;;;;;;;;;;;;;4979978;28;20046;-68
2022/12/08 03:23:51;;;;;;;16.95;9.32;;;;;;;;;;4980056;28;19921;-67
2022/12/08 03:26:45;;;;;;;17.25;10.40;;;;;;;;;;4980254;28;20062;-67
2022/12/08 03:29:12;;;;;;;18.00;11.40;;;;;;;;;;4974815;28;20100;-67
2022/12/08 03:31:43;;;;;;;20.35;9.85;;;;;;;;;;4979921;28;20129;-67
2022/12/08 03:34:10;;;;;;;19.95;10.80;;;;;;;;;;4980954;28;20511;-67
2022/12/08 03:36:36;;;;;;;17.70;10.07;;;;;;;;;;4980873;28;20046;-67
2022/12/08 03:39:01;;;;;;;21.75;11.15;;;;;;;;;;4979637;28;20057;-67
2022/12/08 03:41:27;;;;;;;17.00;10.50;;;;;;;;;;4978912;28;20092;-66
2022/12/08 03:43:56;;;;;;;20.13;10.75;;;;;;;;;;4979910;28;20161;-66
2022/12/08 03:46:24;;;;;;;24.60;10.43;;;;;;;;;;4980524;28;20455;-66
2022/12/08 03:48:50;;;;;;;17.13;10.15;;;;;;;;;;4980076;28;20054;-66
2022/12/08 03:51:16;;;;;;;22.27;11.55;;;;;;;;;;4979812;28;20049;-67
2022/12/08 03:53:42;;;;;;;19.90;11.07;;;;;;;;;;4978597;28;20054;-66
2022/12/08 03:56:29;;;;;;;21.58;11.70;;;;;;;;;;4980816;28;20058;-66
2022/12/08 03:58:55;;;;;;;17.35;10.88;;;;;;;;;;4983532;28;20407;-65
2022/12/08 04:01:21;;;;;;;24.95;11.45;;;;;;;;;;4979787;28;20777;-65
2022/12/08 04:03:47;;;;;;;22.48;11.38;;;;;;;;;;4983580;28;20046;-65
2022/12/08 04:06:13;;;;;;;20.60;11.10;;;;;;;;;;4984027;28;20463;-65
2022/12/08 04:08:39;;;;;;;20.73;11.32;;;;;;;;;;4984285;28;20046;-65
2022/12/08 04:11:05;;;;;;;19.15;10.70;;;;;;;;;;4982278;28;20491;-65
2022/12/08 04:13:34;;;;;;;22.05;13.13;;;;;;;;;;4984051;28;20104;-66
2022/12/08 04:16:00;;;;;;;19.05;11.63;;;;;;;;;;4983505;28;20057;-67
2022/12/08 04:18:26;;;;;;;24.88;12.20;;;;;;;;;;4983928;28;20415;-67
2022/12/08 04:20:51;;;;;;;22.92;12.38;;;;;;;;;;4983181;28;20039;-67
2022/12/08 04:23:17;;;;;;;20.33;11.35;;;;;;;;;;4981737;28;20499;-67
2022/12/08 04:25:42;;;;;;;20.48;10.55;;;;;;;;;;4982856;28;20165;-67
2022/12/08 04:28:08;;;;;;;19.10;10.55;;;;;;;;;;4983549;28;20051;-67
2022/12/08 04:30:33;;;;;;;19.55;10.98;;;;;;;;;;4981159;28;20049;-67
2022/12/08 04:32:58;;;;;;;24.60;11.82;;;;;;;;;;4976598;28;20046;-67
2022/12/08 04:35:24;;;;;;;20.98;11.30;;;;;;;;;;4982326;28;20130;-67
2022/12/08 04:37:50;;;;;;;17.70;11.45;;;;;;;;;;4979791;28;20086;-68
2022/12/08 04:40:16;;;;;;;22.20;12.68;;;;;;;;;;4979325;28;20057;-68
2022/12/08 04:42:42;;;;;;;23.95;13.57;;;;;;;;;;4982316;28;20046;-68
2022/12/08 04:45:07;;;;;;;27.92;12.55;;;;;;;;;;4981414;28;20116;-69
2022/12/08 04:47:33;;;;;;;22.75;13.45;;;;;;;;;;4982433;28;20042;-67
2022/12/08 04:49:59;;;;;;;22.27;12.07;;;;;;;;;;4980882;28;20057;-67
2022/12/08 04:52:24;;;;;;;23.23;12.65;;;;;;;;;;4981010;28;20507;-67
2022/12/08 04:54:50;;;;;;;24.75;12.05;;;;;;;;;;4982304;28;20034;-68
2022/12/08 04:57:15;;;;;;;19.90;11.77;;;;;;;;;;4998275;28;20192;-67
2022/12/08 04:59:41;;;;;;;21.90;11.63;;;;;;;;;;4981028;28;20073;-68
2022/12/08 05:02:06;;;;;;;22.88;11.60;;;;;;;;;;4981800;28;20483;-69
2022/12/08 05:04:32;;;;;;;22.10;12.05;;;;;;;;;;4981540;28;20050;-69
2022/12/08 05:06:57;;;;;;;17.85;10.70;;;;;;;;;;4981691;28;20049;-69
2022/12/08 05:09:23;;;;;;;23.15;11.80;;;;;;;;;;4981766;28;20046;-68
2022/12/08 05:11:48;;;;;;;21.52;11.65;;;;;;;;;;4980979;28;20817;-68
2022/12/08 05:14:15;;;;;;;20.02;11.65;;;;;;;;;;4981126;28;20054;-69
2022/12/08 05:16:41;;;;;;;23.38;13.75;;;;;;;;;;4980129;28;20356;-69
2022/12/08 05:19:07;;;;;;;25.38;13.70;;;;;;;;;;4981118;28;20492;-69
2022/12/08 05:21:32;;;;;;;25.38;12.10;;;;;;;;;;4979952;28;20404;-69
2022/12/08 05:23:58;;;;;;;26.13;13.90;;;;;;;;;;4980102;28;20146;-68
2022/12/08 05:26:23;;;;;;;21.95;12.02;;;;;;;;;;4981387;28;20046;-69
2022/12/08 05:28:49;;;;;;;19.67;11.70;;;;;;;;;;4996004;28;20046;-70
2022/12/08 05:31:15;;;;;;;22.33;11.98;;;;;;;;;;4980695;28;20042;-71
2022/12/08 05:33:42;;;;;;;23.25;11.93;;;;;;;;;;4980767;28;20050;-69
2022/12/08 05:36:10;;;;;;;20.98;12.40;;;;;;;;;;4981558;28;20061;-70
2022/12/08 05:38:36;;;;;;;21.55;13.45;;;;;;;;;;4979790;28;20073;-71
2022/12/08 05:41:01;;;;;;;26.60;14.10;;;;;;;;;;4979751;28;20153;-70
2022/12/08 05:43:26;;;;;;;23.58;13.80;;;;;;;;;;4980591;28;20157;-69
2022/12/08 05:45:52;;;;;;;24.85;13.23;;;;;;;;;;4979762;28;20050;-68
2022/12/08 05:48:17;;;;;;;22.70;12.75;;;;;;;;;;4979486;28;20379;-68
2022/12/08 05:50:47;;;;;;;24.20;12.95;;;;;;;;;;4980012;28;20412;-69
2022/12/08 05:53:13;;;;;;;27.27;13.23;;;;;;;;;;4980096;28;20048;-70
2022/12/08 05:55:38;;;;;;;24.20;13.15;;;;;;;;;;4980688;28;20125;-69
2022/12/08 05:58:03;;;;;;;22.15;12.52;;;;;;;;;;4979404;28;20168;-68
2022/12/08 06:00:29;;;;;;;21.70;12.60;;;;;;;;;;4977858;28;20564;-68
2022/12/08 06:02:55;;;;;;;23.08;12.75;;;;;;;;;;4978677;28;20053;-68
2022/12/08 06:05:20;;;;;;;25.08;13.50;;;;;;;;;;4979716;28;20137;-68
2022/12/08 06:07:46;;;;;;;24.73;13.32;;;;;;;;;;4978670;28;20049;-68
2022/12/08 06:10:11;;;;;;;22.40;13.00;;;;;;;;;;4978024;28;20042;-67
2022/12/08 06:12:37;;;;;;;31.58;13.80;;;;;;;;;;4978061;28;21159;-68
2022/12/08 06:15:03;;;;;;;24.13;12.95;;;;;;;;;;4978936;28;20460;-69
2022/12/08 06:17:28;;;;;;;23.70;13.65;;;;;;;;;;4979252;28;20046;-69
2022/12/08 06:19:54;;;;;;;24.42;13.75;;;;;;;;;;4978629;28;20046;-68
2022/12/08 06:22:19;;;;;;;33.60;15.07;;;;;;;;;;4977943;28;20058;-69
2022/12/08 06:24:44;;;;;;;23.63;14.90;;;;;;;;;;4978727;28;20054;-70
2022/12/08 06:27:10;;;;;;;23.77;12.88;;;;;;;;;;4980514;28;20144;-69
2022/12/08 06:29:35;;;;;;;25.92;13.32;;;;;;;;;;4981594;28;20050;-70
2022/12/08 06:32:01;;;;;;;31.45;14.43;;;;;;;;;;4980034;28;20062;-70
2022/12/08 06:34:26;;;;;;;31.52;14.32;;;;;;;;;;4979424;28;20045;-69
2022/12/08 06:36:52;;;;;;;32.42;16.75;;;;;;;;;;4981034;28;20046;-71
2022/12/08 06:39:17;;;;;;;30.90;14.55;;;;;;;;;;4981534;28;20100;-72
2022/12/08 06:44:27;;;;;;;35.30;16.95;;;;;;;;;;4980353;28;22148;-69
2022/12/08 06:46:52;;;;;;;35.85;16.95;;;;;;;;;;4980995;28;20117;-70
2022/12/08 06:49:17;;;;;;;31.52;15.18;;;;;;;;;;4981144;28;20081;-70
2022/12/08 06:51:43;;;;;;;32.38;15.57;;;;;;;;;;4979646;28;20104;-69
2022/12/08 06:54:08;;;;;;;30.42;15.90;;;;;;;;;;4981250;28;20411;-69
2022/12/08 06:56:34;;;;;;;30.40;14.40;;;;;;;;;;4980256;28;20089;-70
2022/12/08 06:58:59;;;;;;;30.30;14.70;;;;;;;;;;4981147;28;20129;-69
2022/12/08 07:01:24;;;;;;;28.98;14.93;;;;;;;;;;4979997;28;20375;-69
2022/12/08 07:03:50;;;;;;;25.80;12.85;;;;;;;;;;4980335;28;20073;-69
2022/12/08 07:06:20;;;;;;;28.08;14.63;;;;;;;;;;4980032;28;20622;-69
2022/12/08 07:08:45;;;;;;;42.08;20.20;;;;;;;;;;4995518;28;20054;-69
2022/12/08 07:11:11;;;;;;;37.22;18.02;;;;;;;;;;4980414;28;20069;-68
2022/12/08 07:13:37;;;;;;;33.42;17.17;;;;;;;;;;4980917;28;20423;-69
2022/12/08 07:16:10;;;;;;;28.60;15.75;;;;;;;;;;4980503;28;20046;-69
2022/12/08 07:18:37;;;;;;;32.08;14.95;;;;;;;;;;4980060;28;20081;-69
2022/12/08 07:21:08;;;;;;;22.50;14.60;;;;;;;;;;4980244;28;20082;-68
2022/12/08 07:23:35;;;;;;;27.77;15.53;;;;;;;;;;4981069;28;20397;-68
2022/12/08 07:26:02;;;;;;;24.95;13.48;;;;;;;;;;4979980;28;20567;-69
2022/12/08 07:28:32;;;;;;;23.98;14.43;;;;;;;;;;4980067;28;20591;-68
2022/12/08 07:30:58;;;;;;;24.23;13.60;;;;;;;;;;4979601;28;20902;-68
2022/12/08 07:33:23;;;;;;;29.17;14.43;;;;;;;;;;4981630;28;20062;-70
2022/12/08 07:36:03;;;;;;;34.42;14.50;;;;;;;;;;4983939;28;20046;-69
2022/12/08 07:38:29;;;;;;;26.13;13.90;;;;;;;;;;4984654;28;20054;-70
2022/12/08 07:40:55;;;;;;;24.65;13.45;;;;;;;;;;4983140;28;20053;-69
2022/12/08 07:43:21;;;;;;;31.83;16.98;;;;;;;;;;4984367;28;20069;-68
2022/12/08 07:45:47;;;;;;;24.73;13.43;;;;;;;;;;4983692;28;20038;-69
2022/12/08 07:48:13;;;;;;;21.27;11.70;;;;;;;;;;4984779;28;20439;-68
2022/12/08 07:50:38;;;;;;;22.90;10.82;;;;;;;;;;4982565;28;20061;-69
2022/12/08 07:53:05;;;;;;;23.15;11.88;;;;;;;;;;4984415;28;20041;-68
2022/12/08 07:55:30;;;;;;;23.23;12.55;;;;;;;;;;4984352;28;20056;-68
2022/12/08 07:57:55;;;;;;;20.15;10.73;;;;;;;;;;4983784;28;20121;-70
2022/12/08 08:00:21;;;;;;;20.30;11.95;;;;;;;;;;4983358;28;20046;-68
2022/12/08 08:02:46;;;;;;;19.38;9.93;;;;;;;;;;4983170;28;20046;-69
2022/12/08 08:05:12;;;;;;;18.58;10.23;;;;;;;;;;4983874;28;20110;-69
2022/12/08 08:07:40;;;;;;;16.90;10.50;;;;;;;;;;4984070;28;20523;-70
2022/12/08 08:10:07;;;;;;;14.77;9.82;;;;;;;;;;4983972;28;20046;-68
2022/12/08 08:12:32;;;;;;;18.50;10.80;;;;;;;;;;4982328;28;20581;-69
2022/12/08 08:14:59;;;;;;;15.93;9.68;;;;;;;;;;4983972;28;20054;-69
2022/12/08 08:17:25;;;;;;;18.10;10.05;;;;;;;;;;4982597;28;20411;-69
2022/12/08 08:19:50;;;;;;;13.32;9.07;;;;;;;;;;4982013;28;20494;-71
2022/12/08 08:22:16;;;;;;;17.10;9.88;;;;;;;;;;4983296;28;20054;-69
2022/12/08 08:24:41;;;;;;;17.67;9.00;;;;;;;;;;4982852;28;20042;-69
2022/12/08 08:27:06;;;;;;;15.10;9.45;;;;;;;;;;4982638;28;20137;-69
2022/12/08 08:29:32;;;;;;;12.77;9.15;;;;;;;;;;4983481;28;20112;-69
2022/12/08 08:31:58;;;;;;;14.88;8.55;;;;;;;;;;4982064;28;20389;-69
2022/12/08 08:34:23;;;;;;;15.77;8.90;;;;;;;;;;4982709;28;20519;-70
2022/12/08 08:36:49;;;;;;;10.70;8.25;;;;;;;;;;4983550;28;20061;-69
2022/12/08 08:39:14;;;;;;;12.95;8.10;;;;;;;;;;4983326;28;20046;-69
2022/12/08 08:41:40;;;;;;;11.85;8.38;;;;;;;;;;4982875;28;20081;-69
2022/12/08 08:44:05;;;;;;;10.63;7.47;;;;;;;;;;4981504;28;20059;-70
2022/12/08 08:46:31;;;;;;;9.52;7.30;;;;;;;;;;4982686;28;20042;-69
2022/12/08 08:48:57;;;;;;;11.20;7.72;;;;;;;;;;4983276;28;20038;-70
2022/12/08 08:51:22;;;;;;;16.13;9.77;;;;;;;;;;4982854;28;20058;-70
2022/12/08 08:53:48;;;;;;;13.05;8.50;;;;;;;;;;4982681;28;20081;-69
2022/12/08 08:56:18;;;;;;;15.63;9.60;;;;;;;;;;4982711;28;20058;-70
2022/12/08 08:58:44;;;;;;;12.35;8.32;;;;;;;;;;4981472;28;20177;-69
2022/12/08 09:01:15;;;;;;;11.35;7.85;;;;;;;;;;4982134;28;20042;-69
2022/12/08 09:03:40;;;;;;;13.10;7.32;;;;;;;;;;4983259;28;20061;-69
2022/12/08 09:06:06;;;;;;;12.45;8.00;;;;;;;;;;4982712;28;20921;-71
2022/12/08 09:08:31;;;;;;;10.27;7.32;;;;;;;;;;4982247;28;20523;-69
2022/12/08 09:10:57;;;;;;;9.80;7.35;;;;;;;;;;4981971;28;20490;-70
2022/12/08 09:13:22;;;;;;;11.88;8.15;;;;;;;;;;4982635;28;20049;-71
2022/12/08 09:15:48;;;;;;;14.20;8.38;;;;;;;;;;4982227;28;20049;-70
2022/12/08 09:18:13;;;;;;;9.20;7.22;;;;;;;;;;4982575;28;20851;-70
2022/12/08 09:20:39;;;;;;;9.15;6.95;;;;;;;;;;4981609;28;20046;-72
2022/12/08 09:23:04;;;;;;;10.82;7.20;;;;;;;;;;4982907;28;20616;-69
2022/12/08 09:25:29;;;;;;;11.00;6.53;;;;;;;;;;4982590;28;20721;-71
2022/12/08 09:27:55;;;;;;;10.63;7.25;;;;;;;;;;4982121;28;20050;-69
2022/12/08 09:30:20;;;;;;;11.18;7.55;;;;;;;;;;4981495;28;20081;-69
2022/12/08 09:32:46;;;;;;;9.82;7.15;;;;;;;;;;4981826;28;20070;-68
2022/12/08 09:35:11;;;;;;;8.77;7.45;;;;;;;;;;4982542;28;20407;-69
2022/12/08 09:37:37;;;;;;;8.98;7.18;;;;;;;;;;4982759;28;20034;-68
2022/12/08 09:40:05;;;;;;;8.82;7.30;;;;;;;;;;4981905;28;20190;-69
2022/12/08 09:42:43;;;;;;;10.40;7.03;;;;;;;;;;4980558;28;20046;-68
2022/12/08 09:45:12;;;;;;;8.95;6.30;;;;;;;;;;4982585;28;20050;-70
2022/12/08 09:47:46;;;;;;;7.75;6.28;;;;;;;;;;4982481;28;20053;-69
2022/12/08 09:50:28;;;;;;;9.63;7.43;;;;;;;;;;4982236;28;20105;-69
2022/12/08 09:53:04;;;;;;;10.27;7.82;;;;;;;;;;4980689;28;20069;-69
2022/12/08 09:55:55;;;;;;;10.50;7.72;;;;;;;;;;4981953;28;20345;-68
2022/12/08 09:58:50;;;;;;;13.67;7.37;;;;;;;;;;4980133;28;20427;-67
2022/12/08 10:01:18;;;;;;;8.82;6.38;;;;;;;;;;4995307;28;20369;-68
2022/12/08 10:03:44;;;;;;;9.23;6.20;;;;;;;;;;4980505;28;20057;-68
2022/12/08 10:06:19;;;;;;;8.85;6.20;;;;;;;;;;4981801;28;20526;-68
2022/12/08 10:08:57;;;;;;;8.73;6.93;;;;;;;;;;4982024;28;20100;-69
2022/12/08 10:11:30;;;;;;;9.27;6.60;;;;;;;;;;4981283;28;20043;-69
2022/12/08 10:14:24;;;;;;;12.45;6.60;;;;;;;;;;4980293;28;20046;-69
2022/12/08 10:16:54;;;;;;;8.15;6.03;;;;;;;;;;4974692;28;20054;-68
2022/12/08 10:19:23;;;;;;;8.73;6.45;;;;;;;;;;4982412;28;20633;-68
2022/12/08 10:21:49;;;;;;;9.63;6.80;;;;;;;;;;4980221;28;20408;-69
2022/12/08 10:24:22;;;;;;;8.18;6.30;;;;;;;;;;4980678;28;20890;-70
2022/12/08 10:26:48;;;;;;;7.38;6.25;;;;;;;;;;4981411;28;20073;-69
2022/12/08 10:29:14;;;;;;;9.43;6.20;;;;;;;;;;4981536;28;20132;-69
2022/12/08 10:31:39;;;;;;;7.43;5.90;;;;;;;;;;4979322;28;20046;-69
2022/12/08 10:34:25;;;;;;;7.38;6.30;;;;;;;;;;4981165;28;20411;-68
2022/12/08 10:36:54;;;;;;;7.05;5.68;;;;;;;;;;4980206;28;20107;-68
2022/12/08 10:39:29;;;;;;;7.70;5.93;;;;;;;;;;4981649;28;20062;-69
2022/12/08 10:42:21;;;;;;;8.65;5.93;;;;;;;;;;4979866;28;20385;-67
2022/12/08 10:44:56;;;;;;;9.50;6.25;;;;;;;;;;4978300;28;20108;-67
2022/12/08 10:47:25;;;;;;;8.02;5.72;;;;;;;;;;4980463;28;20920;-67
2022/12/08 10:50:06;;;;;;;6.72;5.68;;;;;;;;;;4980652;28;20058;-68
2022/12/08 10:52:36;;;;;;;6.72;5.45;;;;;;;;;;4980418;28;20627;-68
2022/12/08 10:55:01;;;;;;;9.10;5.57;;;;;;;;;;4981014;28;20108;-68
2022/12/08 10:57:27;;;;;;;8.05;5.43;;;;;;;;;;4980567;28;20492;-67
2022/12/08 10:59:56;;;;;;;6.15;5.38;;;;;;;;;;4980438;28;20050;-68
2022/12/08 11:02:22;;;;;;;6.38;5.00;;;;;;;;;;4980103;28;20492;-68
2022/12/08 11:04:58;;;;;;;5.75;4.97;;;;;;;;;;4981251;28;20046;-67
2022/12/08 11:07:23;;;;;;;5.75;4.82;;;;;;;;;;4980301;28;20056;-67
2022/12/08 11:09:54;;;;;;;6.20;5.10;;;;;;;;;;4979625;28;20112;-69
2022/12/08 11:12:20;;;;;;;8.00;5.45;;;;;;;;;;4980443;28;20053;-67
2022/12/08 11:15:01;;;;;;;12.65;5.35;;;;;;;;;;4980904;28;20073;-68
2022/12/08 11:17:34;;;;;;;10.00;6.25;;;;;;;;;;4981325;28;20116;-68
2022/12/08 11:20:20;;;;;;;6.38;5.72;;;;;;;;;;4979404;28;20034;-69
2022/12/08 11:22:55;;;;;;;7.22;5.07;;;;;;;;;;4979984;28;20100;-69
2022/12/08 11:25:26;;;;;;;7.13;5.47;;;;;;;;;;4980830;28;20514;-69
2022/12/08 11:27:56;;;;;;;8.55;5.57;;;;;;;;;;4980149;28;20046;-68
2022/12/08 11:30:25;;;;;;;8.07;6.03;;;;;;;;;;4978727;28;20107;-68
2022/12/08 11:33:13;;;;;;;7.43;5.80;;;;;;;;;;4978972;28;20054;-71
2022/12/08 11:35:42;;;;;;;13.27;6.43;;;;;;;;;;4980893;28;20910;-71
2022/12/08 11:38:13;;;;;;;10.80;6.30;;;;;;;;;;4980378;28;20116;-71
2022/12/08 11:40:41;;;;;;;8.32;6.07;;;;;;;;;;4980153;28;20230;-68
2022/12/08 11:43:22;;;;;;;8.70;6.18;;;;;;;;;;4979648;28;20042;-68
2022/12/08 11:46:13;;;;;;;7.53;5.60;;;;;;;;;;4980076;28;20042;-66
2022/12/08 11:49:02;;;;;;;8.38;5.95;;;;;;;;;;4973610;28;20971;-70
2022/12/08 11:51:35;;;;;;;9.25;5.65;;;;;;;;;;4979973;28;20046;-67
2022/12/08 11:54:17;;;;;;;9.25;5.90;;;;;;;;;;4979176;28;20082;-67
2022/12/08 11:57:00;;;;;;;8.77;6.32;;;;;;;;;;4981060;28;20423;-68
2022/12/08 11:59:38;;;;;;;9.45;5.88;;;;;;;;;;4980697;28;20136;-67
2022/12/08 12:02:06;;;;;;;9.10;6.05;;;;;;;;;;4978989;28;20113;-67
2022/12/08 12:04:42;;;;;;;7.68;5.90;;;;;;;;;;4979839;28;20431;-66
2022/12/08 12:07:10;;;;;;;7.40;5.70;;;;;;;;;;4980318;28;20046;-68
2022/12/08 12:09:55;;;;;;;8.68;5.32;;;;;;;;;;4980349;28;20045;-68
2022/12/08 12:12:29;;;;;;;6.75;5.25;;;;;;;;;;4977146;28;20123;-67
2022/12/08 12:15:24;;;;;;;8.20;5.55;;;;;;;;;;4979784;28;20055;-68
2022/12/08 12:18:01;;;;;;;7.53;5.93;;;;;;;;;;4979608;28;20096;-66
2022/12/08 12:20:35;;;;;;;8.05;6.00;;;;;;;;;;4984249;28;20044;-66
2022/12/08 12:23:18;;;;;;;7.35;5.50;;;;;;;;;;4983060;28;20047;-66
2022/12/08 12:26:01;;;;;;;8.35;5.85;;;;;;;;;;4983316;28;20042;-66
2022/12/08 12:28:53;;;;;;;7.72;5.18;;;;;;;;;;4981638;28;20078;-66
2022/12/08 12:31:24;;;;;;;7.40;5.55;;;;;;;;;;4975395;28;20050;-66
2022/12/08 12:33:52;;;;;;;8.00;5.38;;;;;;;;;;4982814;28;20112;-65
2022/12/08 12:36:18;;;;;;;6.50;5.28;;;;;;;;;;4977136;28;20995;-66
2022/12/08 12:39:07;;;;;;;10.02;6.53;;;;;;;;;;4981576;28;20051;-67
2022/12/08 12:41:48;;;;;;;8.90;6.13;;;;;;;;;;4980377;28;20073;-65
2022/12/08 12:44:14;;;;;;;7.07;5.85;;;;;;;;;;4978986;28;20050;-66
2022/12/08 12:46:52;;;;;;;10.57;6.18;;;;;;;;;;4981474;28;20093;-66
2022/12/08 12:49:36;;;;;;;10.30;6.72;;;;;;;;;;4980946;28;20487;-65
2022/12/08 12:52:03;;;;;;;10.35;6.20;;;;;;;;;;4979354;28;20042;-66
2022/12/08 12:54:29;;;;;;;11.32;5.75;;;;;;;;;;4981682;28;20050;-66
2022/12/08 12:57:15;;;;;;;10.15;6.47;;;;;;;;;;4980831;28;20042;-65
2022/12/08 12:59:50;;;;;;;7.97;5.93;;;;;;;;;;4950999;28;20503;-66
2022/12/08 13:02:34;;;;;;;9.00;5.78;;;;;;;;;;4977724;28;20161;-66
2022/12/08 13:05:07;;;;;;;8.57;5.90;;;;;;;;;;4981290;28;20034;-66
2022/12/08 13:07:39;;;;;;;6.57;4.97;;;;;;;;;;4981680;28;20058;-66
2022/12/08 13:10:08;;;;;;;;;;;;;;;;;;4979311;28;20582;-66
2022/12/08 13:12:33;;;;;;;5.80;4.55;;;;;;;;;;4979124;28;19925;-66
2022/12/08 13:15:03;;;;;;;10.98;4.85;;;;;;;;;;4981767;28;20057;-66
2022/12/08 13:17:35;;;;;;;6.70;4.95;;;;;;;;;;4982029;28;20456;-65
2022/12/08 13:20:04;;;;;;;5.82;4.13;;;;;;;;;;4981602;28;20046;-66
2022/12/08 13:23:02;;;;;;;5.18;4.13;;;;;;;;;;4981013;28;20050;-66
2022/12/08 13:25:43;;;;;;;4.28;3.25;;;;;;;;;;4980723;28;20050;-66
2022/12/08 13:28:14;;;;;;;4.40;3.45;;;;;;;;;;4981080;28;20053;-65
2022/12/08 13:30:40;;;;;;;4.78;3.80;;;;;;;;;;4980096;28;20046;-66
2022/12/08 13:33:13;;;;;;;4.97;4.00;;;;;;;;;;4981201;28;20065;-66
2022/12/08 13:35:45;;;;;;;7.03;5.60;;;;;;;;;;4981343;28;20492;-66
2022/12/08 13:38:16;;;;;;;5.55;4.45;;;;;;;;;;4979522;28;20046;-67
2022/12/08 13:40:42;;;;;;;5.25;4.47;;;;;;;;;;4980442;28;20502;-67
2022/12/08 13:43:43;;;;;;;8.23;4.65;;;;;;;;;;4980486;28;20046;-67
2022/12/08 13:46:09;;;;;;;8.18;4.32;;;;;;;;;;4975465;28;20046;-67
2022/12/08 13:48:48;;;;;;;5.93;4.40;;;;;;;;;;4982280;28;20784;-67
2022/12/08 13:51:21;;;;;;;7.85;4.25;;;;;;;;;;4981048;28;20046;-67
2022/12/08 13:54:23;;;;;;;8.95;5.18;;;;;;;;;;4980177;28;20092;-67
2022/12/08 13:56:50;;;;;;;7.63;5.75;;;;;;;;;;4979933;28;20046;-67
2022/12/08 13:59:19;;;;;;;9.82;5.75;;;;;;;;;;4980461;28;20049;-66
2022/12/08 14:01:47;;;;;;;6.90;5.60;;;;;;;;;;4980696;28;20065;-67
2022/12/08 14:04:15;;;;;;;7.20;5.05;;;;;;;;;;4980107;28;20058;-67
2022/12/08 14:06:44;;;;;;;9.52;5.72;;;;;;;;;;4981613;28;20127;-67
2022/12/08 14:09:21;;;;;;;7.43;6.05;;;;;;;;;;4981341;28;20061;-67
2022/12/08 14:11:57;;;;;;;8.93;5.35;;;;;;;;;;4979967;28;20054;-67
2022/12/08 14:14:29;;;;;;;10.35;5.50;;;;;;;;;;4980678;28;20053;-67
2022/12/08 14:16:59;;;;;;;6.82;5.50;;;;;;;;;;4981034;28;20136;-67
2022/12/08 14:19:27;;;;;;;8.18;5.43;;;;;;;;;;4980605;28;20046;-67
2022/12/08 14:21:55;;;;;;;8.98;5.88;;;;;;;;;;4978413;28;20038;-67
2022/12/08 14:24:22;;;;;;;7.50;5.43;;;;;;;;;;4981171;28;20062;-67
2022/12/08 14:26:51;;;;;;;7.40;5.63;;;;;;;;;;4980364;28;20574;-67
2022/12/08 14:29:31;;;;;;;7.07;5.40;;;;;;;;;;4981499;28;20204;-67
2022/12/08 14:31:57;;;;;;;7.43;5.38;;;;;;;;;;4978171;28;20546;-67
2022/12/08 14:34:22;;;;;;;6.25;4.78;;;;;;;;;;4981744;28;20057;-67
2022/12/08 14:36:48;;;;;;;6.65;4.85;;;;;;;;;;4979904;28;20173;-67
2022/12/08 14:39:13;;;;;;;7.03;5.22;;;;;;;;;;4978508;28;20061;-67
2022/12/08 14:41:39;;;;;;;6.32;5.20;;;;;;;;;;4979955;28;20053;-67
2022/12/08 14:44:22;;;;;;;10.07;5.50;;;;;;;;;;4977502;28;20491;-67
2022/12/08 14:47:04;;;;;;;11.93;5.57;;;;;;;;;;4980858;28;20125;-67
2022/12/08 14:49:30;;;;;;;;;;;;;;;;;;4980719;28;20131;-67
2022/12/08 14:51:56;;;;;;;8.38;6.20;;;;;;;;;;4979386;28;19926;-67
2022/12/08 14:54:22;;;;;;;8.73;5.78;;;;;;;;;;4981214;28;20048;-67